createdAt,value
2023-01-04T08:42:39.798Z,16.30
2023-01-04T09:02:26.417Z,14.00
2023-01-04T09:10:10.119Z,18.30
2023-01-04T11:36:59.425Z,13.60
2023-01-04T11:42:04.431Z,13.40
2023-01-04T11:47:19.439Z,11.00
2023-01-04T11:52:28.907Z,8.80
2023-01-04T11:57:30.622Z,10.30
2023-01-04T12:03:00.325Z,13.70
2023-01-04T12:07:54.029Z,13.20
2023-01-04T12:12:59.615Z,13.50
2023-01-04T12:18:28.084Z,11.10
2023-01-04T12:23:30.712Z,11.80
2023-01-04T12:28:39.966Z,10.00
2023-01-04T12:33:41.679Z,9.60
2023-01-04T12:38:52.317Z,9.70
2023-01-04T12:43:54.021Z,8.50
2023-01-04T12:49:04.759Z,10.00
2023-01-04T12:54:23.902Z,12.80
2023-01-04T12:59:55.181Z,11.60
2023-01-04T13:10:51.609Z,11.90
2023-01-04T13:16:11.716Z,17.00
2023-01-04T13:21:33.199Z,11.30
2023-01-04T13:26:46.000Z,12.40
2023-01-04T13:31:55.656Z,10.10
2023-01-04T13:37:13.652Z,10.20
2023-01-04T13:42:32.379Z,10.40
2023-01-04T13:47:40.736Z,13.40
2023-01-04T13:52:58.353Z,12.00
2023-01-04T13:58:06.669Z,12.30
2023-01-04T14:03:29.818Z,17.50
2023-01-04T14:08:40.774Z,8.20
2023-01-04T14:13:48.130Z,10.90
2023-01-04T14:18:49.835Z,11.00
2023-01-04T14:23:51.480Z,9.80
2023-01-04T14:28:53.090Z,9.20
2023-01-04T14:33:55.214Z,9.40
2023-01-04T14:39:10.221Z,10.90
2023-01-04T14:44:16.198Z,12.20
2023-01-04T14:49:19.962Z,12.50
2023-01-04T14:54:25.348Z,11.90
2023-01-04T14:59:28.275Z,14.60
2023-01-04T15:04:30.197Z,17.00
2023-01-04T15:09:32.068Z,13.70
2023-01-04T15:14:34.463Z,14.40
2023-01-04T15:19:38.292Z,14.40
2023-01-04T15:24:40.210Z,14.30
2023-01-04T15:29:41.913Z,17.00
2023-01-04T15:34:47.010Z,12.90
2023-01-04T15:39:49.111Z,13.90
2023-01-04T15:44:50.739Z,13.30
2023-01-04T15:49:52.330Z,17.50
2023-01-04T15:54:54.009Z,16.40
2023-01-04T15:59:55.635Z,19.50
2023-01-04T16:04:57.247Z,11.10
2023-01-04T16:09:59.096Z,17.00
2023-01-04T16:15:01.095Z,21.70
2023-01-04T16:20:03.550Z,16.20
2023-01-04T16:25:11.326Z,13.60
2023-01-04T16:30:14.096Z,14.20
2023-01-04T16:35:15.866Z,16.90
2023-01-04T16:40:17.530Z,16.70
2023-01-04T16:45:19.519Z,18.20
2023-01-04T16:50:21.194Z,15.50
2023-01-04T16:55:24.285Z,16.20
2023-01-04T17:00:26.165Z,18.80
2023-01-04T17:05:27.799Z,14.20
2023-01-04T17:10:29.960Z,14.10
2023-01-04T17:15:42.942Z,12.50
2023-01-04T17:20:53.276Z,12.40
2023-01-04T17:26:00.017Z,12.50
2023-01-04T17:31:08.266Z,11.40
2023-01-04T17:36:12.798Z,16.60
2023-01-04T17:41:16.174Z,12.80
2023-01-04T17:46:23.202Z,11.00
2023-01-04T17:51:26.137Z,9.00
2023-01-04T17:56:29.847Z,11.50
2023-01-04T18:01:33.304Z,11.50
2023-01-04T18:06:36.987Z,11.80
2023-01-04T18:11:38.774Z,10.00
2023-01-04T18:16:57.016Z,8.90
2023-01-04T18:21:59.434Z,9.40
2023-01-04T18:27:20.887Z,10.50
2023-01-04T18:32:24.927Z,10.30
2023-01-04T18:37:26.656Z,7.20
2023-01-04T18:42:31.142Z,7.40
2023-01-04T18:47:33.065Z,10.20
2023-01-04T18:52:35.655Z,9.10
2023-01-04T18:57:38.391Z,10.70
2023-01-04T19:02:40.337Z,8.00
2023-01-04T19:07:42.128Z,9.50
2023-01-04T19:12:43.845Z,11.00
2023-01-04T19:17:45.554Z,9.40
2023-01-04T19:22:47.316Z,8.20
2023-01-04T19:27:49.000Z,12.50
2023-01-04T19:32:50.643Z,9.10
2023-01-04T19:37:52.332Z,9.80
2023-01-04T19:42:54.158Z,10.40
2023-01-04T19:47:56.059Z,8.00
2023-01-04T19:52:57.730Z,10.90
2023-01-04T19:57:59.576Z,11.10
2023-01-04T20:03:01.541Z,16.50
2023-01-04T20:08:03.472Z,12.10
2023-01-04T20:13:05.151Z,9.70
2023-01-04T20:18:11.930Z,12.20
2023-01-04T20:23:16.520Z,10.60
2023-01-04T20:28:20.250Z,8.10
2023-01-04T20:33:22.022Z,8.60
2023-01-04T20:38:23.921Z,10.50
2023-01-04T20:43:34.819Z,11.20
2023-01-04T20:48:36.609Z,9.50
2023-01-04T20:53:38.711Z,8.30
2023-01-04T20:58:40.539Z,11.30
2023-01-04T21:03:43.000Z,12.30
2023-01-04T21:08:45.774Z,11.60
2023-01-04T21:13:49.411Z,9.10
2023-01-04T21:18:51.051Z,9.50
2023-01-04T21:23:57.756Z,14.50
2023-01-04T21:28:59.885Z,12.50
2023-01-04T21:34:04.391Z,9.60
2023-01-04T21:39:08.533Z,10.90
2023-01-04T21:44:10.191Z,13.00
2023-01-04T21:49:12.629Z,9.40
2023-01-04T21:54:14.275Z,13.40
2023-01-04T21:59:16.493Z,11.20
2023-01-04T22:04:18.216Z,11.40
2023-01-04T22:09:21.193Z,8.80
2023-01-04T22:14:24.540Z,11.50
2023-01-04T22:19:26.672Z,8.90
2023-01-04T22:24:31.459Z,7.00
2023-01-04T22:29:38.296Z,9.40
2023-01-04T22:34:46.158Z,11.20
2023-01-04T22:39:47.820Z,8.00
2023-01-04T22:44:49.732Z,8.70
2023-01-04T22:49:51.422Z,6.90
2023-01-04T22:54:53.155Z,6.50
2023-01-04T22:59:54.870Z,9.00
2023-01-04T23:04:56.519Z,7.20
2023-01-04T23:09:58.321Z,7.10
2023-01-04T23:15:00.495Z,7.70
2023-01-04T23:20:05.338Z,9.40
2023-01-04T23:25:11.306Z,7.70
2023-01-04T23:30:14.889Z,6.20
2023-01-04T23:35:16.650Z,6.70
2023-01-04T23:40:18.344Z,8.00
2023-01-04T23:45:20.044Z,8.80
2023-01-04T23:50:22.230Z,7.10
2023-01-04T23:55:23.911Z,7.20
